createdAt,value
2023-01-01T00:02:27.458Z,15.3
2023-01-01T00:07:36.647Z,15.3
2023-01-01T00:12:28.327Z,15.1
2023-01-01T00:17:35.660Z,15
2023-01-01T00:22:56.461Z,14.9
2023-01-01T00:27:48.436Z,14.9
2023-01-01T00:32:54.331Z,15.1
2023-01-01T00:37:46.908Z,15.2
2023-01-01T00:42:54.120Z,15.3
2023-01-01T00:47:53.570Z,15.2
2023-01-01T00:52:45.564Z,15.2
2023-01-01T00:57:52.121Z,15.1
2023-01-01T01:03:15.659Z,15
2023-01-01T01:08:28.621Z,14.9
2023-01-01T01:14:00.352Z,14.9
2023-01-01T01:18:52.505Z,15
2023-01-01T01:23:48.205Z,15.1
2023-01-01T01:28:56.020Z,15
2023-01-01T01:33:47.749Z,15.1
2023-01-01T01:39:02.543Z,15.2
2023-01-01T01:44:17.187Z,15.2
2023-01-01T01:49:29.286Z,15.2
2023-01-01T01:54:05.607Z,15.1
2023-01-01T01:58:56.698Z,15.1
2023-01-01T02:04:08.428Z,14.9
2023-01-01T02:09:15.576Z,14.9
2023-01-01T02:14:11.903Z,14.9
2023-01-01T02:19:21.611Z,15
2023-01-01T02:24:12.929Z,15.1
2023-01-01T02:29:03.806Z,15.2
2023-01-01T02:34:12.711Z,15.1
2023-01-01T02:39:04.719Z,15.1
2023-01-01T02:48:50.631Z,14.9
2023-01-01T02:53:46.418Z,14.8
2023-01-01T02:58:52.194Z,14.8
2023-01-01T03:03:44.393Z,14.9
2023-01-01T03:08:51.281Z,15.1
2023-01-01T03:13:58.868Z,15.1
2023-01-01T03:18:50.979Z,15
2023-01-01T03:24:02.682Z,14.9
2023-01-01T03:29:10.438Z,14.8
2023-01-01T03:34:17.392Z,14.7
2023-01-01T03:39:24.031Z,14.6
2023-01-01T03:44:00.505Z,14.7
2023-01-01T03:49:08.566Z,14.8
2023-01-01T03:54:30.448Z,14.9
2023-01-01T03:58:51.215Z,15
2023-01-01T04:03:59.710Z,14.9
2023-01-01T04:09:14.733Z,14.9
2023-01-01T04:14:21.630Z,14.8
2023-01-01T04:19:29.128Z,14.7
2023-01-01T04:24:28.263Z,14.6
2023-01-01T04:29:35.215Z,14.6
2023-01-01T04:34:42.058Z,14.7
2023-01-01T04:39:33.291Z,14.6
2023-01-01T04:44:24.705Z,14.6
2023-01-01T04:49:32.893Z,14.8
2023-01-01T04:54:39.584Z,14.9
2023-01-01T04:59:30.665Z,15
2023-01-01T05:04:22.927Z,14.9
2023-01-01T05:09:45.519Z,14.8
2023-01-01T05:15:08.354Z,14.7
2023-01-01T05:20:14.761Z,14.6
2023-01-01T05:25:43.315Z,14.5
2023-01-01T05:31:13.342Z,14.6
2023-01-01T05:36:04.573Z,14.8
2023-01-01T05:41:26.994Z,14.9
2023-01-01T05:46:50.160Z,14.9
2023-01-01T05:51:56.648Z,14.8
2023-01-01T05:57:03.577Z,14.7
2023-01-01T06:02:18.791Z,14.6
2023-01-01T06:07:46.475Z,14.5
2023-01-01T06:13:13.324Z,14.5
2023-01-01T06:18:36.683Z,14.6
2023-01-01T06:23:43.732Z,14.8
2023-01-01T06:29:07.709Z,14.9
2023-01-01T06:34:31.091Z,14.9
2023-01-01T06:39:55.192Z,14.8
2023-01-01T06:45:22.373Z,14.6
2023-01-01T06:50:45.115Z,14.5
2023-01-01T06:55:36.146Z,14.4
2023-01-01T07:01:08.212Z,14.4
2023-01-01T07:06:35.936Z,14.6
2023-01-01T07:12:03.510Z,14.7
2023-01-01T07:17:26.579Z,14.7
2023-01-01T07:22:54.827Z,14.8
2023-01-01T07:28:16.275Z,14.8
2023-01-01T07:33:39.399Z,14.9
2023-01-01T07:39:01.549Z,14.8
2023-01-01T07:44:25.994Z,14.8
2023-01-01T07:49:33.417Z,14.7
2023-01-01T07:54:59.121Z,14.6
2023-01-01T08:00:28.209Z,14.5
2023-01-01T08:05:57.727Z,14.6
2023-01-01T08:11:21.002Z,14.8
2023-01-01T08:16:43.918Z,14.9
2023-01-01T08:22:13.852Z,14.8
2023-01-01T08:27:36.375Z,14.8
2023-01-01T08:33:03.191Z,14.6
2023-01-01T08:38:10.938Z,14.5
2023-01-01T08:43:37.774Z,14.4
2023-01-01T08:49:05.720Z,14.6
2023-01-01T08:54:27.651Z,14.8
2023-01-01T08:59:55.695Z,14.9
2023-01-01T09:05:23.763Z,14.8
2023-01-01T09:10:37.296Z,14.7
2023-01-01T09:16:00.109Z,14.6
2023-01-01T09:21:25.353Z,14.6
2023-01-01T09:26:48.054Z,14.5
2023-01-01T09:32:16.712Z,14.6
2023-01-01T09:37:40.651Z,14.7
2023-01-01T09:43:06.951Z,14.8
2023-01-01T09:48:30.956Z,14.9
2023-01-01T09:54:02.191Z,14.8
2023-01-01T09:59:16.760Z,14.8
2023-01-01T10:04:30.581Z,14.9
2023-01-01T10:09:37.473Z,14.9
2023-01-01T10:15:01.102Z,14.9
2023-01-01T10:20:24.044Z,14.9
2023-01-01T10:25:35.907Z,14.9
2023-01-01T10:31:11.555Z,15.1
2023-01-01T10:36:21.683Z,15
2023-01-01T10:41:50.265Z,14.9
2023-01-01T10:47:21.065Z,15
2023-01-01T10:52:44.171Z,15.1
2023-01-01T10:58:09.059Z,15.1
2023-01-01T11:03:34.165Z,15
2023-01-01T11:09:04.586Z,14.9
2023-01-01T11:15:18.683Z,15.1
2023-01-01T11:20:44.276Z,15.2
2023-01-01T11:26:07.336Z,15.2
2023-01-01T11:31:14.053Z,15.1
2023-01-01T11:36:36.710Z,15.1
2023-01-01T11:42:06.696Z,15.2
2023-01-01T11:47:19.421Z,15.3
2023-01-01T11:52:42.265Z,15.3
2023-01-01T11:58:04.990Z,15.2
2023-01-01T12:03:33.017Z,15.4
2023-01-01T12:08:56.242Z,15.4
2023-01-01T12:14:28.262Z,15.4
2023-01-01T12:19:53.646Z,15.3
2023-01-01T12:25:16.914Z,15.3
2023-01-01T12:30:48.375Z,15.3
2023-01-01T12:35:40.469Z,15.4
2023-01-01T12:40:53.375Z,15.3
2023-01-01T12:46:06.220Z,15.2
2023-01-01T12:51:33.560Z,15.3
2023-01-01T12:56:41.429Z,15.3
2023-01-01T13:01:50.475Z,15.3
2023-01-01T13:07:19.929Z,15.3
2023-01-01T13:12:33.032Z,15.1
2023-01-01T13:17:56.376Z,15.2
2023-01-01T13:23:18.896Z,15.3
2023-01-01T13:28:30.409Z,15.3
2023-01-01T13:33:42.520Z,15.3
2023-01-01T13:39:04.489Z,15.3
2023-01-01T13:44:30.287Z,15.4
2023-01-01T13:50:14.877Z,15.4
2023-01-01T13:55:49.594Z,15.3
2023-01-01T14:01:12.754Z,15.4
2023-01-01T14:06:21.395Z,15.5
2023-01-01T14:12:23.914Z,15.5
2023-01-01T14:17:46.811Z,15.4
2023-01-01T14:23:09.807Z,15.4
2023-01-01T14:28:32.825Z,15.5
2023-01-01T14:33:59.865Z,15.6
2023-01-01T14:39:27.347Z,15.5
2023-01-01T14:44:49.725Z,15.4
2023-01-01T14:50:16.314Z,15.7
2023-01-01T14:55:23.963Z,15.8
2023-01-01T15:00:53.548Z,15.8
2023-01-01T15:06:20.338Z,15.6
2023-01-01T15:11:45.795Z,15.6
2023-01-01T15:17:15.755Z,15.8
2023-01-01T15:22:22.935Z,15.7
2023-01-01T15:27:45.914Z,15.7
2023-01-01T15:33:16.212Z,15.6
2023-01-01T15:38:38.915Z,15.8
2023-01-01T15:44:01.746Z,15.9
2023-01-01T15:49:09.128Z,15.8
2023-01-01T15:54:37.816Z,15.6
2023-01-01T15:59:45.035Z,15.7
2023-01-01T16:05:15.484Z,15.8
2023-01-01T16:10:42.281Z,15.7
2023-01-01T16:16:06.365Z,15.6
2023-01-01T16:21:13.545Z,15.6
2023-01-01T16:26:25.189Z,15.6
2023-01-01T16:31:38.200Z,15.7
2023-01-01T16:37:06.430Z,15.6
2023-01-01T16:42:36.452Z,15.5
2023-01-01T16:48:01.160Z,15.5
2023-01-01T16:53:17.776Z,15.7
2023-01-01T16:59:24.014Z,15.7
2023-01-01T17:04:48.200Z,15.6
2023-01-01T17:10:12.989Z,15.6
2023-01-01T17:15:39.006Z,15.6
2023-01-01T17:21:33.218Z,15.6
2023-01-01T17:27:01.987Z,15.6
2023-01-01T17:32:09.407Z,15.6
2023-01-01T17:37:19.935Z,15.6
2023-01-01T17:42:32.602Z,15.4
2023-01-01T17:47:56.039Z,15.3
2023-01-01T17:53:03.854Z,15.3
2023-01-01T17:58:30.741Z,15.4
2023-01-01T18:03:42.336Z,15.5
2023-01-01T18:09:17.211Z,15.4
2023-01-01T18:14:08.603Z,15.3
2023-01-01T18:19:16.107Z,15.1
2023-01-01T18:24:41.696Z,15.1
2023-01-01T18:30:12.017Z,15
2023-01-01T18:35:19.809Z,15.2
2023-01-01T18:40:42.761Z,15.3
2023-01-01T18:46:11.521Z,15.3
2023-01-01T18:51:19.410Z,15.2
2023-01-01T18:56:26.892Z,15.1
2023-01-01T19:01:42.095Z,15
2023-01-01T19:07:06.014Z,14.9
2023-01-01T19:12:31.089Z,14.9
2023-01-01T19:17:38.286Z,15
2023-01-01T19:23:01.067Z,15.2
2023-01-01T19:28:10.232Z,15.2
2023-01-01T19:33:33.174Z,15.2
2023-01-01T19:38:56.507Z,15.3
2023-01-01T19:44:26.353Z,15.3
2023-01-01T19:49:55.334Z,15.2
2023-01-01T19:55:18.473Z,15.1
2023-01-01T20:00:41.784Z,15
2023-01-01T20:07:21.183Z,14.9
2023-01-01T20:12:43.591Z,14.9
2023-01-01T20:17:51.434Z,15.1
2023-01-01T20:23:03.260Z,15.2
2023-01-01T20:28:29.962Z,15.2
2023-01-01T20:33:53.059Z,15.2
2023-01-01T20:39:15.647Z,15.1
2023-01-01T20:44:23.073Z,15
2023-01-01T20:49:46.110Z,14.9
2023-01-01T20:55:08.291Z,14.9
2023-01-01T21:00:59.273Z,15
2023-01-01T21:05:51.405Z,14.9
2023-01-01T21:10:58.886Z,14.9
2023-01-01T21:16:22.781Z,14.9
2023-01-01T21:21:14.871Z,15.1
2023-01-01T21:26:54.887Z,15.1
2023-01-01T21:32:06.836Z,15.1
2023-01-01T21:37:01.710Z,15
2023-01-01T21:41:56.845Z,14.9
2023-01-01T21:47:03.886Z,14.9
2023-01-01T21:52:25.933Z,14.8
2023-01-01T21:57:22.598Z,14.9
2023-01-01T22:02:50.517Z,15.1
2023-01-01T22:08:55.516Z,15.3
2023-01-01T22:14:18.512Z,15.2
2023-01-01T22:19:30.354Z,15.1
2023-01-01T22:24:58.907Z,14.9
2023-01-01T22:30:05.578Z,14.9
2023-01-01T22:35:28.018Z,14.8
2023-01-01T22:40:58.653Z,14.8
2023-01-01T22:46:06.269Z,15.1
2023-01-01T22:51:29.997Z,15.2
2023-01-01T22:56:22.723Z,15.1
2023-01-01T23:01:29.796Z,15.1
2023-01-01T23:06:37.731Z,14.9
2023-01-01T23:11:52.562Z,14.9
2023-01-01T23:17:03.701Z,14.8
2023-01-01T23:22:17.835Z,14.8
2023-01-01T23:27:41.338Z,14.9
2023-01-01T23:32:50.625Z,14.9
2023-01-01T23:38:12.122Z,15.1
2023-01-01T23:43:37.819Z,15.1
2023-01-01T23:49:06.037Z,15
2023-01-01T23:54:12.184Z,14.9
2023-01-01T23:59:34.673Z,14.8
